createdAt,value
2018-11-25T00:01:48.985Z,64.54
2018-11-25T00:06:51.537Z,64.58
2018-11-25T00:11:54.124Z,64.98
2018-11-25T00:16:56.755Z,64.78
2018-11-25T00:21:59.533Z,64.79
2018-11-25T00:27:02.100Z,65.00
2018-11-25T00:32:04.812Z,64.65
2018-11-25T00:37:07.464Z,65.05
2018-11-25T00:42:10.008Z,64.64
2018-11-25T00:47:12.746Z,64.64
2018-11-25T00:52:15.395Z,64.73
2018-11-25T00:57:18.127Z,65.20
2018-11-25T01:02:20.763Z,65.15
2018-11-25T01:07:23.435Z,64.81
2018-11-25T01:12:26.003Z,64.60
2018-11-25T01:17:28.671Z,64.75
2018-11-25T01:22:31.247Z,64.68
2018-11-25T01:27:33.849Z,65.15
2018-11-25T01:32:36.481Z,64.80
2018-11-25T01:37:39.079Z,65.19
2018-11-25T01:42:41.700Z,65.21
2018-11-25T01:47:44.404Z,65.20
2018-11-25T01:52:47.110Z,65.28
2018-11-25T01:57:49.657Z,64.93
2018-11-25T02:02:52.283Z,65.16
2018-11-25T02:07:54.821Z,65.08
2018-11-25T02:12:57.368Z,65.36
2018-11-25T02:18:00.047Z,65.52
2018-11-25T02:23:02.707Z,65.43
2018-11-25T02:28:05.341Z,65.42
2018-11-25T02:33:07.955Z,65.08
2018-11-25T02:38:10.522Z,65.20
2018-11-25T02:43:14.014Z,65.28
2018-11-25T02:48:15.851Z,65.21
2018-11-25T02:53:18.403Z,65.49
2018-11-25T02:58:20.947Z,65.77
2018-11-25T03:03:23.501Z,66.07
2018-11-25T03:08:26.152Z,65.78
2018-11-25T03:13:28.691Z,65.45
2018-11-25T03:18:31.256Z,66.04
2018-11-25T03:23:33.806Z,66.03
2018-11-25T03:28:36.379Z,66.20
2018-11-25T03:33:38.966Z,65.93
2018-11-25T03:38:41.594Z,66.38
2018-11-25T03:43:44.171Z,66.37
2018-11-25T03:48:46.750Z,66.21
2018-11-25T03:53:49.309Z,66.50
2018-11-25T03:58:51.832Z,66.27
2018-11-25T04:03:54.447Z,66.21
2018-11-25T04:08:57.023Z,66.71
2018-11-25T04:13:59.636Z,66.42
2018-11-25T04:19:02.225Z,66.82
2018-11-25T04:24:04.800Z,66.74
2018-11-25T04:29:07.339Z,66.88
2018-11-25T04:34:09.880Z,67.07
2018-11-25T04:39:12.518Z,66.62
2018-11-25T04:44:15.063Z,66.75
2018-11-25T04:49:17.685Z,67.13
2018-11-25T04:54:20.254Z,67.09
2018-11-25T04:59:22.784Z,67.12
2018-11-25T05:04:25.315Z,67.10
2018-11-25T05:09:34.590Z,66.87
2018-11-25T05:14:37.259Z,67.22
2018-11-25T05:19:39.823Z,67.12
2018-11-25T05:24:42.467Z,66.96
2018-11-25T05:29:45.076Z,67.01
2018-11-25T05:34:47.635Z,67.07
2018-11-25T05:39:50.201Z,67.01
2018-11-25T05:44:52.757Z,67.14
2018-11-25T05:49:55.332Z,67.38
2018-11-25T05:54:57.954Z,67.65
2018-11-25T06:00:00.569Z,67.25
2018-11-25T06:05:03.449Z,67.76
2018-11-25T06:10:07.338Z,67.78
2018-11-25T06:15:10.502Z,67.74
2018-11-25T06:20:13.566Z,67.54
2018-11-25T06:25:16.791Z,68.06
2018-11-25T06:30:19.880Z,67.74
2018-11-25T06:35:22.440Z,68.01
2018-11-25T06:40:25.084Z,67.94
2018-11-25T06:45:28.285Z,67.62
2018-11-25T06:50:31.122Z,67.92
2018-11-25T06:55:33.907Z,67.90
2018-11-25T07:00:36.511Z,67.95
2018-11-25T07:05:39.098Z,68.33
2018-11-25T07:10:42.494Z,68.13
2018-11-25T07:15:45.150Z,68.29
2018-11-25T07:20:47.803Z,68.17
2018-11-25T07:25:50.395Z,68.11
2018-11-25T07:31:04.539Z,68.01
2018-11-25T07:36:07.081Z,68.04
2018-11-25T07:41:09.801Z,68.00
2018-11-25T07:46:12.697Z,68.21
2018-11-25T07:51:15.387Z,68.09
2018-11-25T07:56:17.964Z,68.29
2018-11-25T08:01:20.812Z,68.12
2018-11-25T08:06:23.479Z,60.14
2018-11-25T08:11:26.050Z,57.74
2018-11-25T08:16:28.607Z,56.22
2018-11-25T08:21:31.230Z,57.72
2018-11-25T08:26:34.261Z,59.49
2018-11-25T08:31:38.068Z,59.70
2018-11-25T08:36:40.961Z,60.13
2018-11-25T08:41:43.552Z,60.79
2018-11-25T08:46:46.237Z,60.36
2018-11-25T08:51:48.853Z,59.21
2018-11-25T08:56:51.459Z,59.42
2018-11-25T09:01:54.031Z,59.29
2018-11-25T09:06:56.642Z,60.13
2018-11-25T09:11:59.908Z,60.12
2018-11-25T09:17:03.114Z,60.63
2018-11-25T09:22:05.929Z,60.13
2018-11-25T09:27:08.479Z,60.93
2018-11-25T09:32:11.067Z,60.99
2018-11-25T09:37:13.859Z,60.40
2018-11-25T09:42:16.472Z,61.04
2018-11-25T09:47:19.099Z,60.79
2018-11-25T09:52:21.762Z,61.26
2018-11-25T09:57:24.372Z,61.30
2018-11-25T10:02:26.938Z,61.55
2018-11-25T10:07:29.953Z,61.31
2018-11-25T10:12:32.881Z,61.23
2018-11-25T10:17:35.537Z,61.55
2018-11-25T10:22:38.206Z,61.50
2018-11-25T10:27:40.900Z,61.66
2018-11-25T10:32:43.625Z,61.43
2018-11-25T10:37:46.222Z,61.67
2018-11-25T10:42:48.834Z,61.43
2018-11-25T10:47:51.435Z,61.15
2018-11-25T10:52:54.050Z,61.28
2018-11-25T10:57:56.645Z,61.46
2018-11-25T11:03:04.521Z,61.00
2018-11-25T11:08:07.424Z,61.34
2018-11-25T11:13:10.062Z,60.99
2018-11-25T11:18:12.660Z,61.65
2018-11-25T11:23:15.187Z,61.81
2018-11-25T11:28:45.376Z,61.81
2018-11-25T11:33:47.929Z,61.76
2018-11-25T11:38:50.672Z,61.54
2018-11-25T11:43:53.408Z,61.86
2018-11-25T11:48:56.123Z,61.74
2018-11-25T11:53:58.687Z,62.21
2018-11-25T11:59:01.225Z,61.69
2018-11-25T12:04:04.390Z,61.14
2018-11-25T12:09:08.913Z,61.47
2018-11-25T12:14:11.612Z,61.67
2018-11-25T12:19:14.509Z,61.50
2018-11-25T12:24:17.594Z,60.79
2018-11-25T12:29:20.174Z,60.82
2018-11-25T12:34:23.125Z,60.51
2018-11-25T12:39:28.519Z,61.07
2018-11-25T12:44:29.308Z,60.77
2018-11-25T12:49:31.878Z,59.14
2018-11-25T12:54:34.639Z,58.19
2018-11-25T12:59:37.413Z,59.15
2018-11-25T13:04:40.389Z,60.13
2018-11-25T13:09:43.230Z,60.07
2018-11-25T13:14:45.835Z,60.10
2018-11-25T13:19:48.420Z,60.32
2018-11-25T13:24:52.566Z,60.35
2018-11-25T13:29:55.458Z,60.81
2018-11-25T13:34:58.149Z,60.38
2018-11-25T13:40:02.405Z,60.68
2018-11-25T13:45:04.639Z,60.44
2018-11-25T13:50:07.960Z,60.70
2018-11-25T13:55:14.692Z,60.87
2018-11-25T14:00:20.423Z,60.65
2018-11-25T14:05:23.007Z,61.15
2018-11-25T14:10:30.185Z,61.10
2018-11-25T14:15:32.731Z,60.64
2018-11-25T14:20:35.427Z,61.17
2018-11-25T14:25:37.983Z,61.02
2018-11-25T14:30:40.608Z,61.20
2018-11-25T14:35:43.375Z,61.31
2018-11-25T14:40:46.304Z,61.65
2018-11-25T14:45:49.028Z,61.84
2018-11-25T14:50:51.882Z,61.70
2018-11-25T14:55:54.440Z,61.91
2018-11-25T15:00:57.137Z,62.59
2018-11-25T15:06:00.036Z,62.54
2018-11-25T15:11:02.645Z,62.29
2018-11-25T15:16:06.907Z,62.57
2018-11-25T15:21:10.036Z,62.76
2018-11-25T15:26:14.684Z,62.68
2018-11-25T15:31:17.322Z,63.29
2018-11-25T15:36:19.923Z,62.62
2018-11-25T15:41:23.979Z,63.11
2018-11-25T15:46:26.540Z,62.93
2018-11-25T15:51:29.186Z,63.09
2018-11-25T15:56:31.937Z,62.67
2018-11-25T16:01:34.355Z,62.54
2018-11-25T16:06:37.108Z,62.86
2018-11-25T16:11:39.729Z,63.09
2018-11-25T16:16:42.580Z,63.02
2018-11-25T16:21:45.172Z,63.04
2018-11-25T16:26:47.731Z,63.18
2018-11-25T16:31:50.290Z,63.04
2018-11-25T16:36:52.811Z,63.56
2018-11-25T16:41:55.367Z,63.70
2018-11-25T16:46:58.299Z,63.64
2018-11-25T16:52:01.981Z,63.48
2018-11-25T16:57:05.507Z,63.24
2018-11-25T17:02:08.411Z,63.22
2018-11-25T17:07:11.203Z,62.65
2018-11-25T17:12:14.051Z,62.00
2018-11-25T17:17:16.995Z,61.00
2018-11-25T17:22:19.666Z,60.96
2018-11-25T17:27:22.517Z,60.96
2018-11-25T17:32:25.319Z,60.72
2018-11-25T17:37:27.969Z,61.11
2018-11-25T17:42:30.946Z,61.27
2018-11-25T17:47:33.843Z,61.89
2018-11-25T17:52:36.431Z,61.52
2018-11-25T17:57:39.222Z,61.63
2018-11-25T18:02:42.165Z,61.38
2018-11-25T18:07:44.850Z,60.25
2018-11-25T18:12:47.656Z,60.14
2018-11-25T18:17:51.564Z,59.67
2018-11-25T18:22:54.243Z,59.77
2018-11-25T18:28:00.515Z,59.67
2018-11-25T18:32:59.510Z,60.03
2018-11-25T18:38:02.321Z,60.40
2018-11-25T18:43:05.475Z,60.32
2018-11-25T18:48:09.075Z,59.69
2018-11-25T18:53:11.919Z,59.29
2018-11-25T18:58:14.643Z,59.26
2018-11-25T19:03:17.274Z,59.14
2018-11-25T19:08:20.181Z,59.05
2018-11-25T19:13:24.189Z,59.03
2018-11-25T19:18:31.026Z,59.22
2018-11-25T19:23:34.123Z,59.39
2018-11-25T19:28:37.447Z,59.88
2018-11-25T19:33:41.169Z,59.62
2018-11-25T19:38:43.816Z,60.29
2018-11-25T19:43:46.855Z,59.60
2018-11-25T19:53:51.215Z,59.60
2018-11-25T19:58:57.987Z,59.62
2018-11-25T20:04:00.536Z,59.76
2018-11-25T20:09:04.012Z,60.10
2018-11-25T20:14:06.918Z,60.54
2018-11-25T20:19:09.931Z,60.75
2018-11-25T20:24:12.752Z,61.08
2018-11-25T20:29:16.098Z,60.74
2018-11-25T20:34:18.651Z,61.05
2018-11-25T20:39:26.591Z,61.38
2018-11-25T20:44:29.276Z,61.58
2018-11-25T20:49:33.584Z,61.41
2018-11-25T20:54:36.572Z,62.12
2018-11-25T20:59:39.320Z,61.80
2018-11-25T21:04:41.868Z,62.06
2018-11-25T21:09:44.411Z,62.61
2018-11-25T21:14:46.940Z,62.61
2018-11-25T21:19:53.774Z,62.68
2018-11-25T21:24:56.352Z,62.45
2018-11-25T21:29:58.917Z,62.58
2018-11-25T21:35:02.457Z,62.62
2018-11-25T21:40:07.670Z,63.09
2018-11-25T21:45:15.932Z,62.89
2018-11-25T22:02:23.256Z,63.04
2018-11-25T22:07:28.942Z,63.56
2018-11-25T22:12:31.490Z,63.17
2018-11-25T22:17:34.331Z,63.15
2018-11-25T22:22:36.940Z,63.80
2018-11-25T22:27:42.747Z,63.98
2018-11-25T22:32:47.587Z,63.46
2018-11-25T22:37:52.351Z,63.52
2018-11-25T22:43:06.843Z,64.04
2018-11-25T22:48:09.459Z,63.91
2018-11-25T22:53:12.075Z,63.96
2018-11-25T22:58:14.660Z,64.18
2018-11-25T23:03:17.193Z,64.81
2018-11-25T23:08:19.739Z,64.73
2018-11-25T23:13:22.290Z,64.52
2018-11-25T23:18:24.887Z,65.02
2018-11-25T23:23:27.408Z,64.82
2018-11-25T23:28:29.954Z,65.25
2018-11-25T23:33:32.667Z,64.89
2018-11-25T23:38:36.607Z,64.90
2018-11-25T23:43:40.197Z,65.08
2018-11-25T23:48:42.868Z,65.28
2018-11-25T23:53:45.419Z,65.06
2018-11-25T23:58:48.001Z,65.52
